Guatemala City, Guatemala
Current Conditions -  °F | °C
As of 1:00 AM on Saturday 29 Nov 2014 (Local Time) from MGGT Reporting Station
Broken Clouds Broken Clouds  
Wind Chill: 14°   Ceiling: 1600
Heat Index: 14°   Visibility: 6mi
Dew Point: 10°   Wind: 18mph
Humidity: 77%   Direction: 20°NNE
Pressure: 30.3"   Gusts: NA
Location:  14.58°N, 90.52°W
Report Text: MGGT 290700Z 02016KT 9999 BKN016 14/10 Q1026 A3030
Loading
Personal Weather Stations






























Interactive Weather Map New forecast layout! Learn more

10-Day Weather Forecast

Advertisements
Track Severe Weather on mobile